Time;durP1;ratioP1;P1;durP2;ratioP2;P2;SDS_P1;SDS_P2;PMS_P1;PMS_P2;Temp;Humidity;BMP_temperature;BMP_pressure;BME280_temperature;BME280_humidity;BME280_pressure;Samples;Min_cycle;Max_cycle;Signal;HPM_P1;HPM_P2
2021/12/13 00:00:22;;;;;;;0.10;0.10;;;;;;;13.32;70.85;102521.66;5042000;28;19999;-82
2021/12/13 00:03:19;;;;;;;0.65;0.65;;;;;;;13.43;70.45;102527.84;5038434;28;20033;-80
2021/12/13 00:05:50;;;;;;;0.70;0.70;;;;;;;13.26;70.52;102528.78;5044514;28;20527;-81
2021/12/13 00:08:25;;;;;;;1.10;0.52;;;;;;;13.23;70.74;102538.56;5038057;28;20035;-81
2021/12/13 00:10:56;;;;;;;0.10;0.10;;;;;;;13.13;70.94;102524.41;5040999;28;20041;-81
2021/12/13 00:13:38;;;;;;;0.10;0.10;;;;;;;13.15;70.90;102530.63;5045518;28;20421;-80
2021/12/13 00:16:06;;;;;;;0.30;0.30;;;;;;;13.07;70.68;102532.41;5042717;28;20029;-81
2021/12/13 00:18:38;;;;;;;0.47;0.30;;;;;;;13.08;70.82;102528.84;5043376;28;20056;-81
2021/12/13 00:21:09;;;;;;;0.20;0.20;;;;;;;13.08;70.56;102534.19;5040295;28;20037;-80
2021/12/13 00:23:46;;;;;;;0.57;0.40;;;;;;;13.15;70.36;102525.28;5042588;28;20037;-81
2021/12/13 00:26:22;;;;;;;0.35;0.35;;;;;;;13.14;70.37;102534.16;5045782;28;20040;-81
2021/12/13 00:28:48;;;;;;;0.10;0.10;;;;;;;13.06;70.21;102533.28;5042151;28;20052;-80
2021/12/13 00:34:28;;;;;;;0.50;0.50;;;;;;;13.09;70.67;102525.31;5063428;28;20952;-81
2021/12/13 00:37:03;;;;;;;0.63;0.63;;;;;;;13.06;69.95;102527.97;5042280;28;20047;-82
2021/12/13 00:39:35;;;;;;;0.10;0.10;;;;;;;13.00;70.35;102530.69;5044712;28;20488;-81
2021/12/13 00:42:04;;;;;;;0.32;0.32;;;;;;;13.01;70.36;102528.00;5044990;28;20044;-81
2021/12/13 00:44:37;;;;;;;0.20;0.20;;;;;;;12.99;70.49;102523.59;5049342;28;20487;-81
2021/12/13 00:47:08;;;;;;;0.10;0.10;;;;;;;12.99;70.07;102524.44;5047471;28;20100;-82
2021/12/13 00:49:38;;;;;;;0.10;0.10;;;;;;;12.94;70.16;102527.13;5043563;28;20105;-81
2021/12/13 00:52:05;;;;;;;1.00;1.00;;;;;;;12.95;70.15;102534.22;5038073;28;20029;-82
2021/12/13 00:54:40;;;;;;;0.10;0.10;;;;;;;13.04;69.44;102537.75;5045002;28;20033;-82
2021/12/13 01:00:04;;;;;;;0.10;0.10;;;;;;;13.07;69.99;102537.72;5072821;27;20409;-81
2021/12/13 01:02:42;;;;;;;0.95;0.95;;;;;;;13.04;69.92;102533.31;5045419;28;20029;-82
2021/12/13 01:05:14;;;;;;;0.20;0.20;;;;;;;12.91;69.81;102545.75;5043515;28;20102;-81
2021/12/13 01:08:20;;;;;;;0.40;0.40;;;;;;;12.94;69.64;102543.09;5045090;28;20044;-81
2021/12/13 01:13:42;;;;;;;0.10;0.10;;;;;;;12.88;69.98;102551.06;5104588;27;20404;-81
2021/12/13 01:16:37;;;;;;;0.57;0.57;;;;;;;12.94;69.73;102548.41;5105529;28;20027;-81
2021/12/13 01:22:34;;;;;;;0.25;0.25;;;;;;;12.87;69.99;102552.00;5035457;28;20492;-82
2021/12/13 01:25:17;;;;;;;;;;;;;;;12.92;69.24;102543.97;5024997;28;20129;-81
2021/12/13 01:27:50;;;;;;;0.13;0.13;;;;;;;12.95;69.66;102559.94;5026389;28;19922;-81
2021/12/13 01:30:21;;;;;;;0.10;0.10;;;;;;;12.85;69.53;102550.22;4996677;28;20034;-81
2021/12/13 01:32:52;;;;;;;0.10;0.10;;;;;;;12.84;69.16;102559.97;5004582;28;20034;-82
2021/12/13 01:35:25;;;;;;;0.10;0.10;;;;;;;12.84;69.86;102567.94;5005005;28;20038;-80
2021/12/13 01:37:54;;;;;;;0.32;0.32;;;;;;;12.83;69.61;102565.28;5004692;28;20485;-82
2021/12/13 01:40:25;;;;;;;0.10;0.10;;;;;;;12.86;69.89;102566.19;5005933;28;20057;-81
2021/12/13 01:43:12;;;;;;;0.10;0.10;;;;;;;13.01;69.24;102564.34;5005621;28;20044;-82
2021/12/13 01:45:41;;;;;;;0.10;0.10;;;;;;;12.97;68.88;102566.13;5007314;28;20451;-81
2021/12/13 01:48:17;;;;;;;0.10;0.10;;;;;;;12.99;69.49;102558.16;5007541;28;20033;-82
2021/12/13 01:50:48;;;;;;;0.38;0.38;;;;;;;12.94;69.03;102564.38;5008592;28;20375;-81
2021/12/13 01:53:18;;;;;;;0.20;0.20;;;;;;;12.91;69.46;102563.47;4989506;28;20564;-81
2021/12/13 01:55:47;;;;;;;0.10;0.10;;;;;;;12.95;69.55;102560.81;5008503;28;20038;-81
2021/12/13 01:58:37;;;;;;;0.10;0.10;;;;;;;12.99;69.06;102571.47;5005606;28;20053;-81
2021/12/13 02:04:00;;;;;;;0.25;0.25;;;;;;;12.97;69.16;102566.13;5066673;28;20406;-81
2021/12/13 02:09:23;;;;;;;0.10;0.10;;;;;;;12.99;69.31;102576.78;5058635;27;20418;-81
2021/12/13 02:11:54;;;;;;;0.10;0.10;;;;;;;12.95;69.25;102560.81;5040750;28;20030;-81
2021/12/13 02:14:26;;;;;;;0.10;0.10;;;;;;;12.90;68.73;102567.06;5037116;28;20120;-81
2021/12/13 02:17:10;;;;;;;0.20;0.20;;;;;;;12.90;69.89;102567.06;5039590;28;20031;-81
2021/12/13 02:19:57;;;;;;;0.10;0.10;;;;;;;12.95;68.95;102566.13;5041633;28;20034;-82
2021/12/13 02:25:31;;;;;;;0.13;0.13;;;;;;;12.94;68.95;102563.50;5064215;27;20805;-81
2021/12/13 02:28:12;;;;;;;0.20;0.20;;;;;;;12.93;69.08;102561.72;5062672;28;20026;-81
2021/12/13 02:30:54;;;;;;;0.10;0.10;;;;;;;12.98;69.29;102567.03;5047042;28;20037;-81
2021/12/13 02:33:24;;;;;;;0.10;0.10;;;;;;;12.80;69.54;102560.88;5039245;28;20025;-81
2021/12/13 02:35:57;;;;;;;0.10;0.10;;;;;;;12.86;69.14;102566.19;5040652;28;20025;-81
2021/12/13 02:38:23;;;;;;;0.75;0.75;;;;;;;12.86;69.23;102567.94;5043487;28;20048;-82
2021/12/13 02:40:50;;;;;;;0.40;0.40;;;;;;;12.84;69.43;102567.94;5043229;28;20049;-81
2021/12/13 02:43:20;;;;;;;1.20;0.80;;;;;;;12.89;69.21;102571.47;5044872;28;20480;-81
2021/12/13 02:45:50;;;;;;;0.28;0.28;;;;;;;12.92;69.47;102568.81;5041799;28;20109;-81
2021/12/13 02:48:43;;;;;;;0.90;0.90;;;;;;;12.92;69.57;102570.59;5042626;28;20026;-82
2021/12/13 02:51:17;;;;;;;0.77;0.77;;;;;;;12.89;69.16;102570.59;5041513;28;20041;-81
2021/12/13 02:53:58;;;;;;;0.40;0.40;;;;;;;12.95;69.19;102568.81;5039147;28;20026;-81
2021/12/13 02:56:31;;;;;;;0.20;0.20;;;;;;;12.94;69.09;102564.38;5041092;28;20120;-81
2021/12/13 02:58:59;;;;;;;1.15;1.15;;;;;;;12.85;69.12;102566.19;5047327;28;20040;-81
2021/12/13 03:01:33;;;;;;;0.15;0.15;;;;;;;12.92;69.53;102559.94;5040405;28;20026;-80
2021/12/13 03:04:06;;;;;;;0.10;0.10;;;;;;;12.91;69.30;102558.16;5040816;28;20033;-81
2021/12/13 03:06:37;;;;;;;0.90;0.90;;;;;;;12.86;69.21;102560.84;5038197;28;20032;-81
2021/12/13 03:09:12;;;;;;;0.20;0.20;;;;;;;12.93;69.29;102562.63;5038379;28;20047;-81
2021/12/13 03:11:38;;;;;;;0.32;0.32;;;;;;;12.84;69.19;102567.06;5037440;28;20293;-81
2021/12/13 03:14:10;;;;;;;0.55;0.55;;;;;;;12.90;68.95;102567.06;5037168;28;20082;-81
2021/12/13 03:19:52;;;;;;;0.82;0.82;;;;;;;13.03;69.33;102562.59;5045940;27;1282296;-81
2021/12/13 03:31:14;;;;;;;0.13;0.13;;;;;;;13.01;69.06;102559.03;5055722;28;20406;-81
2021/12/13 03:39:42;;;;;;;0.35;0.35;;;;;;;12.89;69.25;102570.59;5059300;28;20914;-81
2021/12/13 03:42:13;;;;;;;0.43;0.43;;;;;;;12.86;68.81;102568.84;5036344;28;20053;-81
2021/12/13 03:44:46;;;;;;;0.35;0.35;;;;;;;12.77;68.68;102566.19;5050188;28;20484;-81
2021/12/13 03:47:22;;;;;;;1.75;1.42;;;;;;;12.84;68.58;102567.94;5048885;28;20037;-81
2021/12/13 03:49:53;;;;;;;0.63;0.45;;;;;;;12.82;68.61;102561.72;5046783;28;20047;-81
2021/12/13 03:52:25;;;;;;;0.40;0.40;;;;;;;12.87;68.45;102559.06;5038871;28;20507;-81
2021/12/13 03:54:54;;;;;;;0.10;0.10;;;;;;;12.80;69.06;102555.53;5049039;28;20029;-81
2021/12/13 03:57:21;;;;;;;0.85;0.85;;;;;;;12.81;68.27;102562.63;5050193;28;20523;-80
2021/12/13 03:59:49;;;;;;;0.10;0.10;;;;;;;12.83;68.46;102560.84;5035984;28;20076;-81
2021/12/13 04:02:21;;;;;;;0.10;0.10;;;;;;;12.84;68.75;102562.63;5034777;28;20468;-81
2021/12/13 04:04:54;;;;;;;0.20;0.20;;;;;;;12.88;68.65;102560.84;5035020;28;20022;-81
2021/12/13 04:07:27;;;;;;;0.60;0.52;;;;;;;12.84;68.54;102559.09;5033533;28;20037;-81
2021/12/13 04:09:57;;;;;;;0.35;0.35;;;;;;;12.87;68.70;102552.00;5033554;28;20030;-81
2021/12/13 04:12:31;;;;;;;0.50;0.50;;;;;;;12.85;68.52;102553.75;5034963;28;20037;-81
2021/12/13 04:15:11;;;;;;;0.20;0.20;;;;;;;12.84;68.27;102551.09;5046723;28;20029;-81
2021/12/13 04:17:46;;;;;;;0.32;0.32;;;;;;;12.84;68.45;102551.97;5045639;28;20057;-81
2021/12/13 04:20:20;;;;;;;1.05;0.77;;;;;;;12.87;68.89;102554.66;5038045;28;20042;-81
2021/12/13 04:22:52;;;;;;;0.15;0.15;;;;;;;12.82;68.63;102550.22;5042012;28;20087;-81
2021/12/13 04:25:24;;;;;;;0.20;0.20;;;;;;;12.82;68.09;102552.88;5043077;28;20042;-81
2021/12/13 04:28:20;;;;;;;1.52;1.42;;;;;;;12.77;68.12;102548.47;5036238;28;20091;-81
2021/12/13 04:33:42;;;;;;;0.20;0.20;;;;;;;12.75;68.50;102557.34;4960069;27;5462517;-82
2021/12/13 04:36:27;;;;;;;0.40;0.40;;;;;;;12.81;67.88;102559.97;5128485;27;20027;-81
2021/12/13 04:39:05;;;;;;;0.20;0.20;;;;;;;12.77;68.01;102560.84;5128733;27;20409;-81
2021/12/13 04:41:44;;;;;;;0.43;0.43;;;;;;;12.84;67.67;102557.31;5129493;27;20068;-82
2021/12/13 04:44:17;;;;;;;0.20;0.20;;;;;;;12.76;68.40;102564.41;5127232;27;20035;-81
2021/12/13 04:46:49;;;;;;;0.55;0.55;;;;;;;12.75;68.24;102557.34;5126623;27;20039;-81
2021/12/13 04:49:18;;;;;;;0.47;0.45;;;;;;;12.69;67.92;102565.31;5127200;27;20031;-81
2021/12/13 04:51:56;;;;;;;0.10;0.10;;;;;;;12.70;67.68;102569.75;5124541;28;20035;-81
2021/12/13 04:54:25;;;;;;;0.20;0.20;;;;;;;12.74;67.12;102560.88;5126293;28;20586;-82
2021/12/13 04:56:54;;;;;;;0.45;0.45;;;;;;;12.69;68.21;102557.34;5129081;27;20525;-81
2021/12/13 04:59:20;;;;;;;0.30;0.30;;;;;;;12.73;68.48;102564.41;5128273;28;20461;-81
2021/12/13 05:01:51;;;;;;;0.10;0.10;;;;;;;12.74;67.56;102555.56;5123153;27;20061;-82
2021/12/13 05:04:19;;;;;;;0.10;0.10;;;;;;;12.75;67.95;102557.34;5127655;27;20023;-82
2021/12/13 05:06:47;;;;;;;0.20;0.20;;;;;;;12.76;68.02;102559.06;5127099;28;20028;-82
2021/12/13 05:09:17;;;;;;;0.10;0.10;;;;;;;12.71;67.83;102571.50;5125852;28;20032;-82
2021/12/13 05:11:49;;;;;;;0.10;0.10;;;;;;;12.75;67.30;102568.84;5125072;28;20043;-81
2021/12/13 05:14:26;;;;;;;0.20;0.20;;;;;;;12.63;67.32;102566.19;5130289;27;20037;-82
2021/12/13 05:16:57;;;;;;;0.10;0.10;;;;;;;12.67;67.15;102575.94;5126358;27;20348;-82
2021/12/13 05:19:31;;;;;;;0.10;0.10;;;;;;;12.69;66.96;102573.28;5128184;28;20028;-82
2021/12/13 05:21:59;;;;;;;0.22;0.22;;;;;;;12.67;67.32;102580.38;5130623;27;20371;-82
2021/12/13 05:24:31;;;;;;;0.20;0.20;;;;;;;12.69;67.05;102567.97;5129031;28;20016;-81
2021/12/13 05:29:40;;;;;;;0.20;0.20;;;;;;;12.68;67.67;102575.06;5089850;28;20402;-81
2021/12/13 05:35:08;;;;;;;0.17;0.17;;;;;;;12.65;67.05;102574.16;5079761;27;20772;-81
2021/12/13 05:37:44;;;;;;;0.52;0.52;;;;;;;12.67;67.61;102569.75;5064152;28;20032;-80
2021/12/13 05:40:15;;;;;;;0.63;0.63;;;;;;;12.67;67.85;102572.41;5069617;28;20037;-80
2021/12/13 05:45:45;;;;;;;0.10;0.10;;;;;;;12.68;67.07;102576.84;5085998;27;20425;-81
2021/12/13 05:48:21;;;;;;;0.15;0.15;;;;;;;12.62;66.83;102567.97;5063995;28;20123;-81
2021/12/13 05:50:53;;;;;;;0.40;0.40;;;;;;;12.65;67.31;102566.19;5061671;28;20119;-81
2021/12/13 05:53:26;;;;;;;0.20;0.20;;;;;;;12.61;67.02;102567.97;5044969;28;20120;-81
2021/12/13 05:58:45;;;;;;;0.50;0.50;;;;;;;12.59;66.92;102575.94;5111631;27;20408;-81
2021/12/13 06:01:21;;;;;;;0.70;0.70;;;;;;;12.67;67.52;102575.94;5099744;28;20093;-82
2021/12/13 06:04:07;;;;;;;0.10;0.10;;;;;;;12.68;67.33;102582.16;5101179;28;20035;-81
2021/12/13 06:06:46;;;;;;;0.20;0.20;;;;;;;12.70;66.59;102575.06;5110974;28;20036;-82
2021/12/13 06:09:52;;;;;;;0.20;0.20;;;;;;;12.75;65.82;102578.59;5103010;28;20103;-80
2021/12/13 06:15:28;;;;;;;0.93;0.93;;;;;;;12.68;66.74;102574.19;5111867;27;20759;-80
2021/12/13 06:23:47;;;;;;;0.17;0.17;;;;;;;12.73;66.19;102581.25;5077745;27;20425;-79
2021/12/13 06:26:15;;;;;;;0.55;0.55;;;;;;;12.73;66.26;102580.38;5061261;28;20037;-82
2021/12/13 06:28:45;;;;;;;0.10;0.10;;;;;;;12.65;66.65;102583.06;5069824;28;20116;-81
2021/12/13 06:31:17;;;;;;;0.17;0.17;;;;;;;12.66;66.07;102583.91;5052517;28;20033;-80
2021/12/13 06:34:03;;;;;;;1.45;1.05;;;;;;;12.73;65.98;102586.56;5041754;28;20049;-80
2021/12/13 06:36:35;;;;;;;0.10;0.10;;;;;;;12.67;65.44;102588.34;5047253;28;20025;-82
2021/12/13 06:39:07;;;;;;;2.83;1.58;;;;;;;12.69;66.58;102590.13;5047016;28;20033;-81
2021/12/13 06:41:37;;;;;;;;;;;;;;;12.79;66.12;102591.88;5048559;28;20037;-81
2021/12/13 06:47:11;;;;;;;0.82;0.82;;;;;;;12.72;66.66;102597.22;5062895;28;20427;-81
2021/12/13 06:55:08;;;;;;;0.20;0.20;;;;;;;12.73;66.38;102599.88;5068547;27;20441;-82
2021/12/13 06:57:39;;;;;;;0.73;0.73;;;;;;;12.74;66.04;102604.31;5047183;28;20069;-82
2021/12/13 07:00:14;;;;;;;0.10;0.10;;;;;;;12.81;66.61;102604.28;5034092;28;20050;-82
2021/12/13 07:05:35;;;;;;;0.10;0.10;;;;;;;12.77;66.32;102601.66;5070825;28;20485;-82
2021/12/13 07:08:09;;;;;;;0.10;0.10;;;;;;;12.78;66.23;102605.19;5041953;28;20112;-81
2021/12/13 07:16:15;;;;;;;0.47;0.47;;;;;;;12.78;66.20;102618.50;5091746;27;20443;-83
2021/12/13 07:18:48;;;;;;;0.13;0.13;;;;;;;12.76;66.72;102622.91;5061830;28;20029;-84
2021/12/13 07:21:20;;;;;;;0.15;0.15;;;;;;;12.77;66.75;102624.69;5042284;28;20041;-84
2021/12/13 07:29:28;;;;;;;0.22;0.22;;;;;;;12.64;66.53;102618.50;5073685;27;20870;-83
2021/12/13 07:40:54;;;;;;;1.02;0.60;;;;;;;12.56;67.95;102631.81;5062276;27;20506;-83
2021/12/13 07:43:37;;;;;;;0.40;0.40;;;;;;;12.58;67.72;102630.00;5043359;28;20037;-83
2021/12/13 07:54:19;;;;;;;1.80;0.75;;;;;;;12.34;68.31;102657.47;5091455;27;20393;-84
2021/12/13 08:05:01;;;;;;;1.75;1.33;;;;;;;12.48;68.12;102649.50;5070527;27;20431;-83
2021/12/13 08:07:42;;;;;;;0.43;0.43;;;;;;;12.47;67.94;102647.72;5064739;28;20111;-83
2021/12/13 08:10:13;;;;;;;0.30;0.30;;;;;;;12.46;68.07;102651.25;5048630;28;20111;-84
2021/12/13 08:12:46;;;;;;;2.45;1.55;;;;;;;12.45;68.09;102649.53;5037270;28;20029;-83
2021/12/13 08:15:34;;;;;;;0.40;0.40;;;;;;;12.42;68.48;102650.41;5040963;28;20029;-82
2021/12/13 08:18:05;;;;;;;1.52;1.42;;;;;;;12.44;68.25;102653.06;5044553;28;20025;-81
2021/12/13 08:20:37;;;;;;;0.43;0.43;;;;;;;12.43;68.63;102653.94;5042825;28;20108;-83
2021/12/13 08:23:05;;;;;;;0.28;0.28;;;;;;;12.41;68.18;102653.94;5039769;28;20436;-83
2021/12/13 08:25:37;;;;;;;0.80;0.80;;;;;;;12.44;68.25;102653.94;5042330;28;20528;-83
2021/12/13 08:28:09;;;;;;;0.98;0.40;;;;;;;12.48;68.49;102649.50;5043678;28;20052;-82
2021/12/13 08:30:59;;;;;;;0.98;0.98;;;;;;;12.50;68.32;102644.19;5042851;28;20031;-84
2021/12/13 08:33:35;;;;;;;0.10;0.10;;;;;;;12.43;68.21;102641.53;5037226;28;20061;-83
2021/12/13 08:36:29;;;;;;;0.77;0.77;;;;;;;12.56;68.62;102636.22;5041257;28;20487;-82
2021/12/13 08:44:44;;;;;;;0.55;0.55;;;;;;;12.54;68.38;102644.19;5066359;28;20403;-83
2021/12/13 08:47:16;;;;;;;0.52;0.52;;;;;;;12.48;68.49;102649.50;5047882;28;20029;-83
2021/12/13 08:49:48;;;;;;;0.20;0.20;;;;;;;12.53;68.02;102653.06;5050839;28;20037;-84
2021/12/13 09:03:22;;;;;;;5.60;1.48;;;;;;;12.59;67.65;102678.78;5073550;27;20402;-84
2021/12/13 09:09:16;;;;;;;0.20;0.20;;;;;;;12.65;67.66;102689.41;5091191;27;20421;-84
2021/12/13 09:12:07;;;;;;;0.20;0.20;;;;;;;12.73;67.80;102694.75;5087087;28;20043;-84
2021/12/13 09:20:24;;;;;;;0.20;0.20;;;;;;;12.89;68.16;102701.84;5071833;27;20403;-83
2021/12/13 09:22:54;;;;;;;0.52;0.52;;;;;;;12.75;67.64;102706.28;5053902;28;20040;-84
2021/12/13 09:28:12;;;;;;;0.20;0.20;;;;;;;12.89;67.95;102709.81;5073582;27;20877;-84
2021/12/13 09:33:28;;;;;;;2.15;2.05;;;;;;;12.95;67.78;102717.78;5069334;27;20912;-81
2021/12/13 09:41:27;;;;;;;3.10;1.20;;;;;;;12.98;66.71;102729.34;5068116;27;20423;-84
2021/12/13 09:52:48;;;;;;;1.00;1.00;;;;;;;13.08;67.00;102740.00;5110061;27;20384;-85
2021/12/13 09:55:20;;;;;;;0.70;0.70;;;;;;;13.07;66.70;102747.94;5108557;28;20475;-85
2021/12/13 10:00:45;;;;;;;0.65;0.45;;;;;;;13.24;66.43;102735.53;5076782;28;21199;-84
2021/12/13 10:03:18;;;;;;;0.65;0.65;;;;;;;13.27;66.33;102739.94;5048909;28;20037;-86
2021/12/13 10:05:49;;;;;;;0.15;0.15;;;;;;;13.27;66.60;102738.19;5059144;28;20084;-85
2021/12/13 10:08:24;;;;;;;0.57;0.57;;;;;;;13.27;66.36;102732.88;5066991;28;20053;-85
2021/12/13 10:11:11;;;;;;;42.85;1.40;;;;;;;13.25;66.25;102733.75;5062820;28;20451;-79
2021/12/13 10:13:40;;;;;;;1.08;1.08;;;;;;;13.36;66.86;102736.44;5065944;28;20104;-85
2021/12/13 10:16:10;;;;;;;0.65;0.65;;;;;;;13.34;66.09;102740.84;5051831;28;20059;-85
2021/12/13 10:18:39;;;;;;;0.35;0.35;;;;;;;13.40;67.13;102738.22;5062734;28;20033;-85
2021/12/13 10:21:13;;;;;;;0.85;0.85;;;;;;;13.51;67.11;102744.41;5057856;28;20025;-84
2021/12/13 10:23:46;;;;;;;0.20;0.20;;;;;;;13.53;66.13;102737.31;5065729;28;20066;-84
2021/12/13 10:26:15;;;;;;;5.18;1.75;;;;;;;13.57;65.85;102744.41;5064976;28;20033;-88
2021/12/13 10:28:52;;;;;;;0.10;0.10;;;;;;;13.59;65.66;102744.38;5058057;28;20033;-85
2021/12/13 10:31:27;;;;;;;0.20;0.20;;;;;;;13.57;64.99;102741.72;5056781;28;20045;-85
2021/12/13 10:33:56;;;;;;;1.63;1.52;;;;;;;13.60;65.05;102740.84;5050097;28;20025;-83
2021/12/13 10:36:24;;;;;;;0.35;0.35;;;;;;;13.55;65.25;102727.53;5057591;28;20055;-83
2021/12/13 10:38:57;;;;;;;1.17;1.10;;;;;;;13.61;65.09;102731.06;5057645;28;20029;-92
2021/12/13 10:41:26;;;;;;;;;;;;;;;13.74;64.72;102731.06;5054887;28;20025;-84
2021/12/13 10:43:57;;;;;;;0.50;0.50;;;;;;;13.58;64.72;102732.88;5049803;28;19916;-82
2021/12/13 10:46:31;;;;;;;0.82;0.63;;;;;;;13.58;64.80;102738.19;5049853;28;20022;-84
2021/12/13 10:49:01;;;;;;;0.20;0.20;;;;;;;13.57;65.07;102736.41;5050985;28;20119;-82
2021/12/13 10:51:38;;;;;;;0.63;0.63;;;;;;;13.70;64.58;102731.06;5048631;28;20458;-83
2021/12/13 10:54:11;;;;;;;0.10;0.10;;;;;;;13.63;64.77;102729.28;5049552;28;20095;-83
2021/12/13 10:56:43;;;;;;;;;;;;;;;13.76;64.19;102725.72;5051849;28;20029;-83
2021/12/13 10:59:16;;;;;;;0.13;0.13;;;;;;;13.71;65.32;102716.84;5049210;28;20011;-84
2021/12/13 11:01:46;;;;;;;0.32;0.32;;;;;;;13.72;64.85;102718.59;5063346;28;20161;-83
2021/12/13 11:04:17;;;;;;;0.40;0.40;;;;;;;13.74;65.16;102722.16;5065834;28;20025;-83
2021/12/13 11:06:46;;;;;;;0.75;0.60;;;;;;;13.73;64.81;102721.28;5056509;28;20035;-81
2021/12/13 11:09:18;;;;;;;0.88;0.75;;;;;;;13.78;65.24;102728.34;5049946;28;20159;-84
2021/12/13 11:11:51;;;;;;;0.28;0.28;;;;;;;13.82;65.13;102728.34;5051201;28;20036;-83
2021/12/13 11:14:20;;;;;;;0.22;0.22;;;;;;;13.86;64.79;102723.91;5053442;28;20025;-83
2021/12/13 11:16:53;;;;;;;0.10;0.10;;;;;;;13.81;64.76;102734.56;5053029;28;20116;-84
2021/12/13 11:19:27;;;;;;;0.40;0.40;;;;;;;13.79;64.51;102731.00;5052632;28;20033;-83
2021/12/13 11:22:01;;;;;;;0.55;0.55;;;;;;;13.82;64.77;102723.03;5049990;28;20116;-83
2021/12/13 11:24:31;;;;;;;1.75;0.55;;;;;;;13.81;64.42;102725.69;5052233;28;20032;-82
2021/12/13 11:27:01;;;;;;;1.38;1.05;;;;;;;13.79;65.13;102728.34;5047216;28;20036;-82
2021/12/13 11:29:28;;;;;;;0.77;0.77;;;;;;;13.83;64.26;102721.22;5038609;28;20468;-83
2021/12/13 11:35:13;;;;;;;1.65;1.20;;;;;;;13.82;63.63;102715.03;5085335;27;20390;-82
2021/12/13 12:14:33;;;;;;;2.42;2.22;;;;;;;13.84;63.60;102715.03;5066741;28;20837;-83
2021/12/13 12:17:03;;;;;;;0.20;0.20;;;;;;;13.88;63.53;102717.69;5067589;28;20032;-83
2021/12/13 12:19:34;;;;;;;0.20;0.20;;;;;;;13.89;63.45;102708.78;5060182;28;20039;-83
2021/12/13 12:22:04;;;;;;;0.10;0.10;;;;;;;13.95;63.45;102715.00;5047966;28;20101;-83
2021/12/13 12:24:37;;;;;;;0.10;0.10;;;;;;;13.83;63.58;102707.91;5048142;28;20029;-83
2021/12/13 12:27:12;;;;;;;0.30;0.30;;;;;;;13.79;63.17;102704.38;5046805;28;20582;-84
2021/12/13 12:29:45;;;;;;;0.15;0.15;;;;;;;13.87;63.11;102701.69;5044660;28;20128;-82
2021/12/13 12:32:20;;;;;;;0.63;0.63;;;;;;;13.88;63.47;102712.34;5047040;28;20117;-82
2021/12/13 12:34:54;;;;;;;0.10;0.10;;;;;;;13.77;63.83;102708.84;5046666;28;20018;-83
2021/12/13 12:43:00;;;;;;;0.30;0.30;;;;;;;13.86;63.20;102716.78;5068360;27;20473;-83
2021/12/13 12:45:38;;;;;;;0.15;0.15;;;;;;;13.91;63.65;102720.31;5067937;28;20166;-84
2021/12/13 12:48:17;;;;;;;1.02;0.73;;;;;;;13.80;63.98;102708.81;5066655;28;20029;-83
2021/12/13 12:50:50;;;;;;;1.40;1.38;;;;;;;13.82;63.79;102709.72;5056924;28;20373;-83
2021/12/13 12:56:02;;;;;;;0.10;0.10;;;;;;;13.82;63.67;102715.03;5082099;27;20483;-82
2021/12/13 12:58:34;;;;;;;0.10;0.10;;;;;;;13.81;63.77;102718.59;5052835;28;20120;-82
2021/12/13 13:01:04;;;;;;;0.50;0.50;;;;;;;13.82;63.63;102717.69;5057572;28;20071;-83
2021/12/13 13:03:34;;;;;;;0.10;0.10;;;;;;;13.80;63.30;102710.59;5054707;28;20075;-82
2021/12/13 13:06:04;;;;;;;0.15;0.15;;;;;;;13.81;63.41;102707.94;5048574;28;20033;-82
2021/12/13 13:08:34;;;;;;;0.52;0.52;;;;;;;13.79;63.82;102704.38;5062642;28;20055;-83
2021/12/13 13:11:35;;;;;;;0.20;0.20;;;;;;;13.75;63.87;102707.94;5061279;28;20021;-83
2021/12/13 13:13:48;;;;;;;0.22;0.22;;;;;;;13.79;63.34;102704.38;5047976;28;20037;-83
2021/12/13 13:16:18;;;;;;;1.63;1.17;;;;;;;13.79;63.24;102709.69;5056381;28;20018;-82
2021/12/13 13:18:45;;;;;;;0.43;0.43;;;;;;;13.80;63.50;102710.59;5047848;28;20025;-83
2021/12/13 13:21:12;;;;;;;0.10;0.10;;;;;;;13.76;63.61;102707.06;5054091;28;20021;-83
2021/12/13 13:23:44;;;;;;;0.30;0.30;;;;;;;13.78;63.18;102707.91;5050145;28;20095;-83
2021/12/13 13:26:11;;;;;;;0.25;0.25;;;;;;;13.77;63.76;102700.84;5050329;28;20017;-82
2021/12/13 13:28:42;;;;;;;0.65;0.65;;;;;;;13.73;63.78;102699.06;5047881;28;20025;-83
2021/12/13 13:31:36;;;;;;;1.17;1.13;;;;;;;13.77;63.70;102699.94;5064000;28;20043;-82
2021/12/13 13:34:07;;;;;;;0.13;0.13;;;;;;;13.67;63.29;102694.66;5056547;28;20022;-82
2021/12/13 13:36:46;;;;;;;0.10;0.10;;;;;;;13.74;63.58;102692.84;5058299;28;20428;-89
2021/12/13 13:39:19;;;;;;;0.20;0.20;;;;;;;13.69;63.31;102702.63;5049604;28;20025;-82
2021/12/13 13:41:49;;;;;;;;;;;;;;;13.82;63.37;102700.81;5049794;28;20473;-83
2021/12/13 13:44:19;;;;;;;1.60;1.50;;;;;;;13.66;63.39;102703.53;5049079;28;19966;-83
2021/12/13 13:46:46;;;;;;;0.10;0.10;;;;;;;13.67;63.78;102701.75;5049085;28;20469;-84
2021/12/13 13:49:20;;;;;;;0.20;0.20;;;;;;;13.62;63.15;102700.88;5049726;28;20025;-84
2021/12/13 13:51:47;;;;;;;0.80;0.80;;;;;;;13.63;63.61;102705.31;5048364;28;20086;-83
2021/12/13 13:54:14;;;;;;;0.15;0.15;;;;;;;13.61;63.27;102704.44;5048861;28;20048;-83
2021/12/13 13:56:44;;;;;;;0.10;0.10;;;;;;;13.59;63.42;102702.69;5049331;28;20029;-83
2021/12/13 13:59:15;;;;;;;0.10;0.10;;;;;;;13.54;63.66;102709.78;5049367;28;20048;-82
2021/12/13 14:04:38;;;;;;;1.33;1.33;;;;;;;13.52;64.17;102703.59;5065051;27;20414;-83
2021/12/13 14:10:08;;;;;;;0.10;0.10;;;;;;;13.45;63.60;102704.47;5109402;27;20395;-83
2021/12/13 14:13:00;;;;;;;0.20;0.20;;;;;;;13.48;63.86;102699.13;5094895;28;20516;-83
2021/12/13 14:15:31;;;;;;;0.10;0.10;;;;;;;13.41;63.71;102702.72;5081155;28;20037;-83
2021/12/13 14:23:31;;;;;;;0.73;0.73;;;;;;;13.42;63.82;102707.13;5072301;27;20434;-83
2021/12/13 14:26:04;;;;;;;0.20;0.20;;;;;;;13.39;64.29;102704.50;5056650;28;20038;-84
2021/12/13 14:31:17;;;;;;;0.20;0.20;;;;;;;13.41;63.54;102702.72;5054307;28;20490;-83
2021/12/13 14:33:50;;;;;;;0.10;0.10;;;;;;;13.33;63.90;102694.69;5054552;28;20476;-82
2021/12/13 14:36:21;;;;;;;0.10;0.10;;;;;;;13.36;64.01;102702.69;5041455;28;20057;-81
2021/12/13 14:38:55;;;;;;;0.20;0.20;;;;;;;13.34;64.69;102706.25;5044080;28;20030;-82
2021/12/13 14:41:29;;;;;;;0.10;0.10;;;;;;;13.31;63.91;102711.56;5054235;28;20040;-83
2021/12/13 14:44:01;;;;;;;0.45;0.45;;;;;;;13.33;63.90;102717.78;5046471;28;20042;-82
2021/12/13 14:46:32;;;;;;;0.52;0.52;;;;;;;13.29;63.55;102724.88;5054546;28;20044;-83
2021/12/13 14:49:18;;;;;;;0.10;0.10;;;;;;;13.36;64.11;102715.13;5055447;28;20495;-83
2021/12/13 14:51:48;;;;;;;0.20;0.20;;;;;;;13.32;64.34;102711.59;5048674;28;20029;-83
2021/12/13 14:54:19;;;;;;;3.22;1.10;;;;;;;13.32;63.72;102716.00;5041958;28;20044;-82
2021/12/13 14:56:51;;;;;;;0.20;0.20;;;;;;;13.36;64.34;102725.78;5054584;28;20444;-82
2021/12/13 14:59:17;;;;;;;0.40;0.40;;;;;;;13.31;63.69;102727.53;5052197;28;20112;-83
2021/12/13 15:01:46;;;;;;;0.10;0.10;;;;;;;13.31;64.33;102733.75;5052193;28;20037;-82
2021/12/13 15:04:18;;;;;;;0.90;0.88;;;;;;;13.31;63.66;102733.75;5047961;28;20036;-81
2021/12/13 15:06:50;;;;;;;0.13;0.13;;;;;;;13.32;63.89;102729.31;5050820;28;20036;-81
2021/12/13 15:09:23;;;;;;;0.68;0.68;;;;;;;13.33;64.06;102739.94;5048396;28;20033;-83
2021/12/13 15:11:58;;;;;;;0.10;0.10;;;;;;;13.35;64.03;102729.31;5051372;28;20127;-82
2021/12/13 15:14:29;;;;;;;0.10;0.10;;;;;;;13.33;63.72;102731.09;5043913;28;20372;-83
2021/12/13 15:17:01;;;;;;;0.10;0.10;;;;;;;13.34;64.03;102727.53;5043007;28;20426;-84
2021/12/13 15:19:30;;;;;;;0.10;0.10;;;;;;;13.34;64.13;102733.75;5048781;28;20029;-83
2021/12/13 15:22:00;;;;;;;0.20;0.20;;;;;;;13.32;63.94;102729.31;5048112;28;20462;-84
2021/12/13 15:24:31;;;;;;;0.35;0.35;;;;;;;13.31;64.48;102730.19;5048725;28;20361;-83
2021/12/13 15:27:03;;;;;;;0.10;0.10;;;;;;;13.24;64.14;102716.88;5047794;28;20094;-82
2021/12/13 15:29:32;;;;;;;0.10;0.10;;;;;;;13.21;64.31;102727.56;5045733;28;20045;-84
2021/12/13 15:32:04;;;;;;;0.30;0.30;;;;;;;13.19;64.44;102724.00;5052593;28;20037;-83
2021/12/13 15:34:36;;;;;;;0.10;0.10;;;;;;;13.22;64.34;102716.03;5048529;28;20035;-83